Time;durP1;ratioP1;P1;durP2;ratioP2;P2;SDS_P1;SDS_P2;PMS_P1;PMS_P2;Temp;Humidity;BMP_temperature;BMP_pressure;BME280_temperature;BME280_humidity;BME280_pressure;Samples;Min_cycle;Max_cycle;Signal;HPM_P1;HPM_P2
2022/06/09 00:01:45;;;;;;;18.03;4.73;;;15.90;92.80;;;;;;5074426;28;20164;-83
2022/06/09 00:04:19;;;;;;;15.83;4.63;;;15.90;92.60;;;;;;5073684;28;20179;-83
2022/06/09 00:06:52;;;;;;;16.43;4.43;;;15.90;94.00;;;;;;5074881;28;20191;-83
2022/06/09 00:09:21;;;;;;;17.50;5.03;;;15.80;93.70;;;;;;5072459;28;20676;-82
2022/06/09 00:11:49;;;;;;;16.60;4.33;;;15.80;93.10;;;;;;5074385;28;20168;-82
2022/06/09 00:14:16;;;;;;;19.80;4.27;;;15.80;93.00;;;;;;5073748;28;20707;-83
2022/06/09 00:16:43;;;;;;;17.00;4.77;;;15.80;93.10;;;;;;5075453;28;20172;-82
2022/06/09 00:19:09;;;;;;;16.30;4.47;;;15.70;93.70;;;;;;5074179;28;20198;-82
2022/06/09 00:21:35;;;;;;;18.53;5.03;;;15.60;94.90;;;;;;5074081;28;20612;-83
2022/06/09 00:24:02;;;;;;;15.67;4.77;;;15.60;95.30;;;;;;5076317;28;20234;-83
2022/06/09 00:26:29;;;;;;;16.93;4.80;;;15.70;94.40;;;;;;5075464;28;20233;-83
2022/06/09 00:28:55;;;;;;;17.83;4.47;;;15.60;95.20;;;;;;5074881;28;20204;-82
2022/06/09 00:31:20;;;;;;;15.47;4.27;;;15.60;95.70;;;;;;5077250;28;20199;-82
2022/06/09 00:33:46;;;;;;;18.10;4.77;;;15.60;95.00;;;;;;5080615;28;20224;-83
2022/06/09 00:36:12;;;;;;;16.47;4.40;;;15.60;95.60;;;;;;5086426;28;20168;-83
2022/06/09 00:38:38;;;;;;;20.20;4.23;;;15.60;95.50;;;;;;5098237;28;20224;-83
2022/06/09 00:41:04;;;;;;;14.73;3.93;;;15.50;96.40;;;;;;5098195;28;20253;-82
2022/06/09 00:43:31;;;;;;;15.67;4.57;;;15.50;96.50;;;;;;5097647;28;20153;-83
2022/06/09 00:46:05;;;;;;;14.07;3.73;;;15.50;96.80;;;;;;5095907;28;20179;-83
2022/06/09 00:48:33;;;;;;;15.43;4.53;;;15.40;97.50;;;;;;5098004;28;20169;-82
2022/06/09 00:51:18;;;;;;;16.93;4.13;;;15.30;98.60;;;;;;5096977;28;20210;-82
2022/06/09 00:53:45;;;;;;;17.73;4.30;;;15.20;99.30;;;;;;5096256;28;20179;-83
2022/06/09 00:56:14;;;;;;;17.17;4.63;;;15.20;99.90;;;;;;5096097;28;20173;-84
2022/06/09 00:58:43;;;;;;;20.13;4.50;;;15.30;99.90;;;;;;5086497;28;20271;-83
2022/06/09 01:01:14;;;;;;;18.07;4.50;;;15.40;98.80;;;;;;5082096;28;20264;-84
2022/06/09 01:03:45;;;;;;;18.77;4.70;;;15.30;98.50;;;;;;5086322;28;20624;-84
2022/06/09 01:06:16;;;;;;;13.17;3.97;;;15.40;97.70;;;;;;5087359;28;20174;-84
2022/06/09 01:09:16;;;;;;;17.43;4.47;;;15.30;98.50;;;;;;5086835;28;20167;-85
2022/06/09 01:11:56;;;;;;;19.43;5.03;;;15.20;98.80;;;;;;5073611;28;20439;-94
2022/06/09 01:14:26;;;;;;;16.77;4.53;;;15.10;99.90;;;;;;5076227;28;20220;-91
2022/06/09 01:17:17;;;;;;;18.37;5.43;;;15.10;99.90;;;;;;5074200;28;20171;-84
2022/06/09 01:20:06;;;;;;;14.90;4.30;;;15.10;99.90;;;;;;5086197;28;20165;-81
2022/06/09 01:22:59;;;;;;;15.83;4.37;;;15.00;99.90;;;;;;5083568;28;20234;-82
2022/06/09 01:25:56;;;;;;;19.37;4.90;;;15.10;99.90;;;;;;5078768;28;20184;-81
2022/06/09 01:28:40;;;;;;;16.10;4.83;;;15.10;99.30;;;;;;5072191;28;20197;-83
2022/06/09 01:31:32;;;;;;;21.90;5.03;;;15.10;99.40;;;;;;5071750;28;20179;-83
2022/06/09 01:34:35;;;;;;;18.27;4.83;;;15.10;99.90;;;;;;5073318;28;20161;-83
2022/06/09 01:37:19;;;;;;;16.00;4.10;;;15.00;99.90;;;;;;5072606;28;20179;-83
2022/06/09 01:39:52;;;;;;;19.10;5.30;;;14.90;99.90;;;;;;5075743;28;20244;-82
2022/06/09 01:42:31;;;;;;;16.50;4.43;;;14.70;99.90;;;;;;5075477;28;20599;-82
2022/06/09 01:45:10;;;;;;;18.30;4.93;;;14.90;99.90;;;;;;5075943;28;20749;-82
2022/06/09 01:47:45;;;;;;;13.87;4.87;;;14.80;99.90;;;;;;5076965;28;20168;-82
2022/06/09 01:50:18;;;;;;;23.53;5.10;;;14.80;99.90;;;;;;5076999;28;20203;-83
2022/06/09 01:52:45;;;;;;;19.73;5.20;;;14.80;99.90;;;;;;5075340;28;20180;-83
2022/06/09 01:55:16;;;;;;;21.50;4.83;;;14.80;99.90;;;;;;5075622;28;20180;-82
2022/06/09 01:57:43;;;;;;;22.03;5.17;;;14.80;99.90;;;;;;5076802;28;20673;-82
2022/06/09 02:00:16;;;;;;;16.33;5.00;;;14.70;99.90;;;;;;5085276;28;20608;-83
2022/06/09 02:02:51;;;;;;;21.50;5.37;;;14.80;99.90;;;;;;5095048;28;20158;-82
2022/06/09 02:05:24;;;;;;;21.07;4.80;;;14.70;99.90;;;;;;5094379;28;20175;-82
2022/06/09 02:07:54;;;;;;;18.43;4.70;;;14.60;99.90;;;;;;5074189;28;20640;-82
2022/06/09 02:10:38;;;;;;;15.23;4.37;;;14.60;99.90;;;;;;5076038;28;20231;-82
2022/06/09 02:13:33;;;;;;;15.10;5.53;;;14.60;99.90;;;;;;5075652;28;20598;-84
2022/06/09 02:16:05;;;;;;;18.10;5.37;;;14.50;99.90;;;;;;5073025;28;20666;-83
2022/06/09 02:18:35;;;;;;;18.80;5.70;;;14.50;99.90;;;;;;5075645;28;20200;-82
2022/06/09 02:21:04;;;;;;;19.53;4.87;;;14.50;99.90;;;;;;5082154;28;20206;-83
2022/06/09 02:23:30;;;;;;;20.30;5.00;;;14.40;99.90;;;;;;5101106;28;20162;-83
2022/06/09 02:25:56;;;;;;;17.93;4.60;;;14.50;99.90;;;;;;5087489;28;20172;-82
2022/06/09 02:28:22;;;;;;;17.93;4.70;;;14.50;99.90;;;;;;5080409;28;20179;-82
2022/06/09 02:30:48;;;;;;;20.40;4.47;;;14.40;99.90;;;;;;5075186;28;20222;-82
2022/06/09 02:33:15;;;;;;;15.87;5.10;;;14.40;99.90;;;;;;5075080;28;20587;-83
2022/06/09 02:35:41;;;;;;;18.10;4.43;;;14.40;99.90;;;;;;5074690;28;20177;-82
2022/06/09 02:38:08;;;;;;;19.37;4.83;;;14.30;99.90;;;;;;5074587;28;20665;-82
2022/06/09 02:40:34;;;;;;;15.27;4.87;;;14.30;99.90;;;;;;5077408;28;20583;-82
2022/06/09 02:43:03;;;;;;;19.67;5.03;;;14.40;99.90;;;;;;5082797;28;20239;-82
2022/06/09 02:45:29;;;;;;;15.97;4.70;;;14.30;99.90;;;;;;5086666;28;20177;-82
2022/06/09 02:47:55;;;;;;;17.03;4.83;;;14.30;99.90;;;;;;5083851;28;20175;-82
2022/06/09 02:50:21;;;;;;;15.40;4.57;;;14.30;99.90;;;;;;5086414;28;20212;-82
2022/06/09 02:52:48;;;;;;;18.33;5.47;;;14.30;99.90;;;;;;5089587;28;20279;-83
2022/06/09 02:55:14;;;;;;;16.53;4.47;;;14.30;99.90;;;;;;5077224;28;20551;-83
2022/06/09 02:57:40;;;;;;;17.90;5.07;;;14.40;99.90;;;;;;5074493;28;20243;-83
2022/06/09 03:00:09;;;;;;;15.10;4.93;;;14.40;99.90;;;;;;5074874;28;20580;-83
2022/06/09 03:02:35;;;;;;;19.10;4.87;;;14.40;99.90;;;;;;5074279;28;20191;-82
2022/06/09 03:05:04;;;;;;;16.73;4.87;;;14.40;99.90;;;;;;5074204;28;20624;-83
2022/06/09 03:07:30;;;;;;;19.43;5.20;;;14.40;99.90;;;;;;5074142;28;20179;-83
2022/06/09 03:09:55;;;;;;;18.80;4.63;;;14.40;99.90;;;;;;5074127;28;20222;-82
2022/06/09 03:12:21;;;;;;;16.50;5.00;;;14.40;99.90;;;;;;5074497;28;20172;-83
2022/06/09 03:14:48;;;;;;;16.47;5.27;;;14.40;99.90;;;;;;5074552;28;20654;-85
2022/06/09 03:17:13;;;;;;;17.83;5.03;;;14.30;99.90;;;;;;5074297;28;20222;-83
2022/06/09 03:19:40;;;;;;;20.47;5.10;;;14.20;99.90;;;;;;5073976;28;20173;-82
2022/06/09 03:22:06;;;;;;;20.97;5.13;;;14.20;99.90;;;;;;5074492;28;20207;-83
2022/06/09 03:24:33;;;;;;;18.97;4.63;;;14.10;99.90;;;;;;5073816;28;20180;-83
2022/06/09 03:26:58;;;;;;;18.37;4.63;;;14.00;99.90;;;;;;5073762;28;20259;-83
2022/06/09 03:29:24;;;;;;;17.47;4.47;;;14.00;99.90;;;;;;5073691;28;20305;-83
2022/06/09 03:31:50;;;;;;;19.43;5.07;;;14.00;99.90;;;;;;5073721;28;20209;-83
2022/06/09 03:34:17;;;;;;;17.43;4.87;;;14.00;99.90;;;;;;5073484;28;20168;-83
2022/06/09 03:36:45;;;;;;;15.03;4.67;;;13.90;99.90;;;;;;5074960;28;20620;-83
2022/06/09 03:39:12;;;;;;;18.50;4.80;;;13.90;99.90;;;;;;5073242;28;20703;-82
2022/06/09 03:41:38;;;;;;;17.00;4.73;;;13.90;99.90;;;;;;5073502;28;20186;-82
2022/06/09 03:44:05;;;;;;;16.37;5.20;;;13.80;99.90;;;;;;5073456;28;20175;-83
2022/06/09 03:46:31;;;;;;;18.70;4.93;;;13.80;99.90;;;;;;5073631;28;20459;-83
2022/06/09 03:48:57;;;;;;;14.97;4.50;;;13.90;99.90;;;;;;5073555;28;20301;-83
2022/06/09 03:51:22;;;;;;;17.80;4.90;;;13.80;99.90;;;;;;5073134;28;20191;-83
2022/06/09 03:53:48;;;;;;;21.13;5.13;;;13.80;99.90;;;;;;5074271;28;20167;-82
2022/06/09 03:56:15;;;;;;;17.13;5.63;;;13.90;99.90;;;;;;5073333;28;20184;-82
2022/06/09 03:58:42;;;;;;;18.40;5.60;;;13.90;99.90;;;;;;5073038;28;20198;-82
2022/06/09 04:01:13;;;;;;;16.30;4.90;;;13.90;99.90;;;;;;5072155;28;20194;-83
2022/06/09 04:03:40;;;;;;;16.67;5.10;;;13.90;99.90;;;;;;5074117;28;20260;-83
2022/06/09 04:06:09;;;;;;;18.10;5.33;;;13.80;99.90;;;;;;5074331;28;20171;-83
2022/06/09 04:08:36;;;;;;;17.30;4.63;;;13.90;99.90;;;;;;5073033;28;20178;-82
2022/06/09 04:11:01;;;;;;;15.80;4.83;;;13.90;99.90;;;;;;5073233;28;20192;-83
2022/06/09 04:13:28;;;;;;;20.33;5.07;;;13.90;99.90;;;;;;5073470;28;20209;-82
2022/06/09 04:15:55;;;;;;;16.00;5.40;;;14.00;99.90;;;;;;5073434;28;20228;-84
2022/06/09 04:18:21;;;;;;;18.67;4.90;;;14.00;99.90;;;;;;5074892;28;20186;-83
2022/06/09 04:20:47;;;;;;;13.57;4.50;;;14.10;99.90;;;;;;5073725;28;20174;-83
2022/06/09 04:23:12;;;;;;;18.20;4.60;;;14.10;99.90;;;;;;5056845;28;20175;-82
2022/06/09 04:25:39;;;;;;;21.27;5.00;;;14.20;99.90;;;;;;5072930;28;20321;-84
2022/06/09 04:28:05;;;;;;;18.40;5.60;;;14.20;99.90;;;;;;5073150;28;20177;-82
2022/06/09 04:30:31;;;;;;;20.30;5.40;;;14.30;99.90;;;;;;5075260;28;20211;-83
2022/06/09 04:32:57;;;;;;;19.77;5.53;;;14.30;99.90;;;;;;5073349;28;20189;-82
2022/06/09 04:35:24;;;;;;;15.07;4.47;;;14.50;99.90;;;;;;5072890;28;20176;-83
2022/06/09 04:38:02;;;;;;;17.80;5.73;;;14.40;99.90;;;;;;5073442;28;20222;-83
2022/06/09 04:40:34;;;;;;;16.17;4.63;;;14.40;99.90;;;;;;5075914;28;20653;-82
2022/06/09 04:43:00;;;;;;;15.07;4.87;;;14.30;99.90;;;;;;5095221;28;20175;-83
2022/06/09 04:45:26;;;;;;;16.33;4.90;;;14.40;99.90;;;;;;5086451;28;20183;-83
2022/06/09 04:47:52;;;;;;;13.87;4.53;;;14.50;99.90;;;;;;5075715;28;20664;-83
2022/06/09 04:50:22;;;;;;;13.67;4.43;;;14.50;99.90;;;;;;5071970;28;20204;-82
2022/06/09 04:52:48;;;;;;;17.27;4.77;;;14.60;99.90;;;;;;5076864;28;20187;-82
2022/06/09 04:55:14;;;;;;;18.93;5.20;;;14.70;99.90;;;;;;5079486;28;20176;-83
2022/06/09 04:57:40;;;;;;;15.33;5.20;;;14.80;99.90;;;;;;5084429;28;20214;-82
2022/06/09 05:00:09;;;;;;;17.37;4.90;;;15.00;99.90;;;;;;5079657;28;20172;-82
2022/06/09 05:02:35;;;;;;;18.37;5.20;;;15.00;99.90;;;;;;5082668;28;20164;-82
2022/06/09 05:05:02;;;;;;;23.23;4.87;;;15.20;99.90;;;;;;5062110;28;20268;-82
2022/06/09 05:07:29;;;;;;;19.10;4.50;;;15.20;99.90;;;;;;5074614;28;20195;-83
2022/06/09 05:09:55;;;;;;;16.43;4.70;;;15.30;99.90;;;;;;5073017;28;20294;-83
2022/06/09 05:12:21;;;;;;;14.03;4.33;;;15.40;99.90;;;;;;5072644;28;20211;-82
2022/06/09 05:14:47;;;;;;;17.13;5.60;;;15.60;98.50;;;;;;5072352;28;20210;-82
2022/06/09 05:17:13;;;;;;;19.77;4.87;;;15.40;97.70;;;;;;5074808;28;20508;-82
2022/06/09 05:19:38;;;;;;;16.53;4.17;;;15.40;97.60;;;;;;5072794;28;20666;-83
2022/06/09 05:22:04;;;;;;;13.10;4.37;;;15.40;97.60;;;;;;5075725;28;20203;-83
2022/06/09 05:24:30;;;;;;;16.37;4.47;;;15.50;96.80;;;;;;5075205;28;20176;-83
2022/06/09 05:26:56;;;;;;;15.23;4.70;;;15.20;96.80;;;;;;5077233;28;20513;-93
2022/06/09 05:29:21;;;;;;;18.40;4.80;;;15.30;95.50;;;;;;5079901;28;20273;-86
2022/06/09 05:31:47;;;;;;;15.77;4.43;;;15.30;95.20;;;;;;5095715;28;20183;-88
2022/06/09 05:34:14;;;;;;;17.80;4.80;;;15.30;96.10;;;;;;5093692;28;20157;-82
2022/06/09 05:36:40;;;;;;;16.63;4.90;;;15.10;96.00;;;;;;5085506;28;20269;-83
2022/06/09 05:44:54;;;;;;;16.53;4.50;;;15.30;95.50;;;;;;5063039;28;20184;-85
2022/06/09 05:47:21;;;;;;;17.63;5.37;;;15.30;95.30;;;;;;5058744;28;20222;-95
2022/06/09 05:49:49;;;;;;;15.80;4.73;;;15.20;96.50;;;;;;5072211;28;20374;-85
2022/06/09 05:52:18;;;;;;;19.13;4.53;;;15.10;96.60;;;;;;5066331;28;20214;-83
2022/06/09 05:54:44;;;;;;;18.37;5.17;;;15.20;96.40;;;;;;5080913;28;20156;-88
2022/06/09 05:57:11;;;;;;;16.40;4.57;;;15.40;94.90;;;;;;5074689;28;20269;-85
2022/06/09 05:59:37;;;;;;;15.80;4.63;;;15.40;93.80;;;;;;5083292;28;20370;-88
2022/06/09 06:02:11;;;;;;;20.93;4.80;;;15.50;92.70;;;;;;5075643;28;20271;-85
2022/06/09 06:04:38;;;;;;;23.17;4.73;;;15.50;92.80;;;;;;5076269;28;20200;-86
2022/06/09 06:07:13;;;;;;;21.03;5.37;;;15.60;90.50;;;;;;5076526;28;20187;-83
2022/06/09 06:09:39;;;;;;;18.10;4.47;;;15.60;91.60;;;;;;5078872;28;20219;-85
2022/06/09 06:12:13;;;;;;;18.07;4.57;;;15.60;90.00;;;;;;5079426;28;20167;-83
2022/06/09 06:14:46;;;;;;;19.30;5.30;;;15.50;90.70;;;;;;5059928;28;20240;-84
2022/06/09 06:17:24;;;;;;;23.53;5.40;;;15.60;90.40;;;;;;5081697;28;20160;-85
2022/06/09 06:19:50;;;;;;;13.60;4.20;;;15.60;89.80;;;;;;5077935;28;20210;-85
2022/06/09 06:22:17;;;;;;;16.63;4.90;;;15.60;90.50;;;;;;5077959;28;20192;-86
2022/06/09 06:24:44;;;;;;;17.20;4.77;;;15.50;90.80;;;;;;5081464;28;20639;-88
2022/06/09 06:27:26;;;;;;;18.03;5.17;;;15.50;90.60;;;;;;5064632;28;20186;-87
2022/06/09 06:29:53;;;;;;;14.27;4.63;;;15.60;90.50;;;;;;5081876;28;20215;-91
2022/06/09 06:36:22;;;;;;;17.40;4.07;;;15.90;84.80;;;;;;5080036;28;20690;-83
2022/06/09 06:39:01;;;;;;;17.67;4.43;;;15.80;83.10;;;;;;5078598;28;20233;-83
2022/06/09 06:41:27;;;;;;;18.17;4.47;;;15.80;84.30;;;;;;5082439;28;20214;-84
2022/06/09 06:43:56;;;;;;;16.43;4.80;;;15.80;84.50;;;;;;5082490;28;20192;-83
2022/06/09 06:46:58;;;;;;;20.17;4.97;;;15.80;82.40;;;;;;5087060;28;20180;-85
2022/06/09 06:52:47;;;;;;;15.63;4.70;;;16.00;80.80;;;;;;5082754;28;20211;-83
2022/06/09 06:55:21;;;;;;;16.97;4.97;;;16.00;80.90;;;;;;5081302;28;20599;-82
2022/06/09 06:57:53;;;;;;;16.70;4.47;;;16.20;77.70;;;;;;5083615;28;20654;-85
2022/06/09 07:00:34;;;;;;;13.83;3.87;;;16.20;76.90;;;;;;5077807;28;20505;-84
2022/06/09 07:06:23;;;;;;;20.30;4.73;;;16.20;75.00;;;;;;5079559;28;20168;-86
2022/06/09 07:08:49;;;;;;;17.00;4.23;;;16.40;77.10;;;;;;5078386;28;20180;-84
2022/06/09 07:14:37;;;;;;;11.97;3.77;;;16.50;74.30;;;;;;5079674;28;20629;-83
2022/06/09 07:17:39;;;;;;;16.33;4.33;;;16.50;71.80;;;;;;5078460;28;20724;-83
2022/06/09 07:23:18;;;;;;;14.80;4.33;;;16.50;70.80;;;;;;5118220;28;20206;-84
2022/06/09 07:25:47;;;;;;;13.47;4.77;;;16.70;67.30;;;;;;5101318;28;20173;-84
2022/06/09 07:28:35;;;;;;;13.73;4.03;;;16.70;66.80;;;;;;5085266;28;20182;-83
2022/06/09 07:31:23;;;;;;;15.50;4.43;;;16.70;66.10;;;;;;5103130;28;20206;-83
2022/06/09 07:33:52;;;;;;;17.60;4.87;;;16.70;64.90;;;;;;5106422;28;20163;-83
2022/06/09 07:36:38;;;;;;;18.47;4.50;;;16.80;62.50;;;;;;5114326;28;20175;-84
2022/06/09 07:39:29;;;;;;;14.33;4.50;;;17.00;58.80;;;;;;5104603;28;20564;-83
2022/06/09 07:42:12;;;;;;;12.57;4.77;;;16.90;57.30;;;;;;5101230;28;20174;-83
2022/06/09 07:45:06;;;;;;;15.83;5.03;;;16.60;65.40;;;;;;5117944;28;20151;-83
2022/06/09 07:47:56;;;;;;;15.50;4.93;;;16.60;65.30;;;;;;5116571;28;20167;-85
2022/06/09 07:50:37;;;;;;;14.63;4.33;;;16.70;68.80;;;;;;5100307;28;20244;-85
2022/06/09 07:56:27;;;;;;;13.63;4.40;;;17.00;51.90;;;;;;5117533;28;20229;-84
2022/06/09 07:58:55;;;;;;;15.77;5.20;;;17.10;51.60;;;;;;5100819;28;20293;-84
2022/06/09 08:01:30;;;;;;;12.73;4.73;;;17.20;51.10;;;;;;5107345;28;20173;-83
2022/06/09 08:03:56;;;;;;;10.57;3.63;;;17.40;47.20;;;;;;5115123;28;20167;-84
2022/06/09 08:06:34;;;;;;;11.20;4.03;;;17.40;44.90;;;;;;5104099;28;20537;-84
2022/06/09 08:09:25;;;;;;;12.47;4.80;;;17.40;45.10;;;;;;5103224;28;20272;-84
2022/06/09 08:15:13;;;;;;;15.53;5.20;;;17.50;47.10;;;;;;5123776;28;20228;-83
2022/06/09 08:18:02;;;;;;;13.70;5.03;;;17.40;45.30;;;;;;5113469;28;20649;-84
2022/06/09 08:20:32;;;;;;;15.10;4.70;;;17.60;44.70;;;;;;5106840;28;20180;-84
2022/06/09 08:26:21;;;;;;;18.83;4.77;;;17.50;48.30;;;;;;5127863;28;20181;-85
2022/06/09 08:28:50;;;;;;;13.63;4.87;;;17.50;51.20;;;;;;5110371;28;20163;-85
2022/06/09 08:31:36;;;;;;;17.83;5.40;;;17.70;51.00;;;;;;5107297;28;20203;-85
2022/06/09 08:34:05;;;;;;;13.90;4.07;;;17.70;46.20;;;;;;5105770;28;20270;-84
2022/06/09 08:36:34;;;;;;;12.97;4.27;;;17.80;42.70;;;;;;5086778;28;20209;-85
2022/06/09 08:39:09;;;;;;;16.00;4.90;;;18.00;36.20;;;;;;5103751;28;20274;-85
2022/06/09 08:42:14;;;;;;;13.00;4.97;;;18.00;29.40;;;;;;5104368;28;20171;-85
2022/06/09 08:48:21;;;;;;;16.27;4.50;;;17.60;39.00;;;;;;5128897;28;20179;-85
2022/06/09 08:51:37;;;;;;;12.33;4.57;;;18.00;40.00;;;;;;5107819;28;20209;-84
2022/06/09 08:54:15;;;;;;;14.23;4.60;;;18.40;24.20;;;;;;5106101;28;20175;-85
2022/06/09 09:00:19;;;;;;;13.27;4.83;;;19.00;17.30;;;;;;5123293;28;20166;-86
2022/06/09 09:03:28;;;;;;;11.30;4.20;;;19.10;3.00;;;;;;5112094;28;20174;-85
2022/06/09 09:06:57;;;;;;;11.77;4.87;;;19.10;1.00;;;;;;5101404;28;20179;-85
2022/06/09 09:12:53;;;;;;;12.53;5.10;;;19.00;15.30;;;;;;5021434;28;20190;-85
2022/06/09 09:15:54;;;;;;;15.00;5.70;;;18.70;15.70;;;;;;5092700;28;20634;-85
2022/06/09 09:22:03;;;;;;;14.50;6.90;;;18.30;27.90;;;;;;5127517;28;20241;-84
2022/06/09 09:28:05;;;;;;;44.20;22.47;;;16.70;79.20;;;;;;5124326;28;20225;-87
2022/06/09 09:31:04;;;;;;;18.47;6.50;;;16.60;93.50;;;;;;5130356;28;20253;-85
2022/06/09 09:33:31;;;;;;;20.50;6.97;;;16.60;96.30;;;;;;5127437;28;20311;-85
2022/06/09 09:43:34;;;;;;;13.80;6.93;;;17.20;91.70;;;;;;5125545;28;20173;-87
2022/06/09 09:46:25;;;;;;;16.07;10.13;;;17.10;85.40;;;;;;5118493;28;20231;-85
2022/06/09 09:52:50;;;;;;;17.60;9.43;;;17.10;91.50;;;;;;5137578;28;20174;-86
2022/06/09 09:58:57;;;;;;;7.97;3.30;;;17.20;81.10;;;;;;5126377;28;20487;-87
2022/06/09 10:08:35;;;;;;;11.27;3.63;;;17.40;76.00;;;;;;5104978;28;20193;-86
2022/06/09 10:14:43;;;;;;;6.73;3.00;;;18.40;46.30;;;;;;5127103;28;20171;-94
2022/06/09 10:18:10;;;;;;;14.50;7.37;;;18.60;29.50;;;;;;5117672;28;20184;-89
2022/06/09 10:21:07;;;;;;;6.43;2.90;;;18.70;27.60;;;;;;5101269;28;20161;-89
2022/06/09 10:23:54;;;;;;;10.93;3.30;;;18.90;20.50;;;;;;5099457;28;20202;-89
2022/06/09 10:26:39;;;;;;;9.37;2.97;;;18.90;12.80;;;;;;5096698;28;20221;-87
2022/06/09 10:29:25;;;;;;;10.13;3.57;;;18.90;11.20;;;;;;5087472;28;20265;-86
2022/06/09 10:32:05;;;;;;;9.80;3.63;;;18.90;17.40;;;;;;5086213;28;20222;-89
2022/06/09 10:35:32;;;;;;;7.20;2.97;;;19.00;11.90;;;;;;5102939;28;20162;-87
2022/06/09 10:38:31;;;;;;;6.13;2.70;;;19.00;1.00;;;;;;5065977;28;20192;-86
2022/06/09 10:41:00;;;;;;;7.73;2.97;;;19.00;1.00;;;;;;5109260;28;20191;-83
2022/06/09 10:43:55;;;;;;;11.33;3.20;;;19.10;1.00;;;;;;5115516;28;20197;-87
2022/06/09 11:00:30;;;;;;;7.73;2.57;;;19.90;1.00;;;;;;5120170;28;20170;-86
2022/06/09 11:03:12;;;;;;;7.47;2.60;;;19.80;1.00;;;;;;5126033;28;20171;-89
2022/06/09 11:06:15;;;;;;;6.97;3.00;;;19.50;1.00;;;;;;5110700;28;20163;-88
2022/06/09 11:09:11;;;;;;;5.40;2.50;;;19.40;1.00;;;;;;5100751;28;20182;-89
2022/06/09 11:12:28;;;;;;;8.80;3.07;;;19.70;1.00;;;;;;5119418;28;20171;-88
2022/06/09 11:15:23;;;;;;;6.33;3.07;;;20.00;1.00;;;;;;5110600;28;20153;-87
2022/06/09 11:21:26;;;;;;;7.97;3.23;;;20.10;1.00;;;;;;5105071;28;20605;-88
2022/06/09 11:24:00;;;;;;;10.70;3.90;;;20.20;1.00;;;;;;5088518;28;20180;-89
2022/06/09 11:26:38;;;;;;;8.20;3.30;;;20.20;1.00;;;;;;5104427;28;20552;-87
2022/06/09 11:32:51;;;;;;;6.50;2.80;;;20.30;1.00;;;;;;5122132;28;20164;-87
2022/06/09 11:36:07;;;;;;;9.87;3.43;;;20.10;1.00;;;;;;5075295;28;20177;-88
2022/06/09 11:38:53;;;;;;;10.37;3.87;;;20.00;1.00;;;;;;5080440;28;20183;-87
2022/06/09 11:41:40;;;;;;;7.30;2.83;;;20.20;1.00;;;;;;5082198;28;20168;-87
2022/06/09 11:44:09;;;;;;;8.20;3.23;;;20.10;1.00;;;;;;5095945;28;20173;-86
2022/06/09 11:46:39;;;;;;;7.70;3.20;;;20.30;1.00;;;;;;5097846;28;20184;-86
2022/06/09 11:49:10;;;;;;;8.87;4.93;;;20.40;1.00;;;;;;5093381;28;20188;-87
2022/06/09 11:51:37;;;;;;;12.43;3.80;;;20.60;1.00;;;;;;5104183;28;20201;-87
2022/06/09 11:54:33;;;;;;;9.57;3.90;;;20.80;1.00;;;;;;5102773;28;20166;-88
2022/06/09 11:57:40;;;;;;;6.80;3.17;;;20.70;1.00;;;;;;5103329;28;20185;-88
2022/06/09 12:00:24;;;;;;;10.67;3.60;;;20.70;1.00;;;;;;5100302;28;20178;-89
2022/06/09 12:03:08;;;;;;;8.53;4.13;;;20.60;1.00;;;;;;5101328;28;20245;-89
2022/06/09 12:05:49;;;;;;;10.53;3.97;;;20.50;1.00;;;;;;5126123;28;20185;-87
2022/06/09 12:08:39;;;;;;;8.97;3.93;;;20.30;1.00;;;;;;5104904;28;20167;-88
2022/06/09 12:11:14;;;;;;;7.83;3.67;;;20.20;1.00;;;;;;5121361;28;20240;-87
2022/06/09 12:14:00;;;;;;;8.80;3.77;;;20.10;1.00;;;;;;5110311;28;20160;-88
2022/06/09 12:16:34;;;;;;;10.77;3.87;;;20.10;1.00;;;;;;5108912;28;20172;-88
2022/06/09 12:19:22;;;;;;;9.30;4.17;;;20.10;1.00;;;;;;5100322;28;20177;-88
2022/06/09 12:21:59;;;;;;;10.17;3.60;;;20.10;1.00;;;;;;5100918;28;20255;-89
2022/06/09 12:25:07;;;;;;;8.07;3.77;;;20.00;1.00;;;;;;5114489;28;20259;-86
2022/06/09 12:27:39;;;;;;;10.67;4.10;;;20.00;1.00;;;;;;5112139;28;20662;-88
2022/06/09 12:30:19;;;;;;;10.37;3.97;;;20.20;1.00;;;;;;5121700;28;20216;-86
2022/06/09 12:32:53;;;;;;;10.00;3.83;;;20.00;1.00;;;;;;5110503;28;20171;-91
2022/06/09 12:35:31;;;;;;;6.87;3.23;;;20.00;1.00;;;;;;5102851;28;20648;-86
2022/06/09 12:38:25;;;;;;;10.27;3.53;;;19.90;1.00;;;;;;5119265;28;20304;-89
2022/06/09 12:40:55;;;;;;;13.27;3.93;;;20.00;1.00;;;;;;5099688;28;20173;-87
2022/06/09 12:46:54;;;;;;;9.40;3.80;;;20.20;1.00;;;;;;5119318;28;20246;-89
2022/06/09 12:49:33;;;;;;;10.30;3.33;;;20.20;1.00;;;;;;5088051;28;20290;-84
2022/06/09 12:52:00;;;;;;;10.23;3.27;;;20.30;1.00;;;;;;5082602;28;20218;-86
2022/06/09 12:54:30;;;;;;;12.23;3.60;;;20.30;1.00;;;;;;5063616;28;20236;-88
2022/06/09 12:57:02;;;;;;;10.10;3.63;;;20.50;1.00;;;;;;5081473;28;20193;-88
2022/06/09 12:59:31;;;;;;;8.67;3.07;;;20.50;1.00;;;;;;5081387;28;20182;-86
2022/06/09 13:02:24;;;;;;;8.30;3.17;;;20.70;1.00;;;;;;5081275;28;20238;-85
2022/06/09 13:04:57;;;;;;;8.60;2.73;;;20.90;1.00;;;;;;5084708;28;20584;-86
2022/06/09 13:07:29;;;;;;;6.60;2.80;;;21.00;1.00;;;;;;5094825;28;20261;-86
2022/06/09 13:10:22;;;;;;;7.97;2.70;;;20.90;99.90;;;;;;5085723;28;20216;-85
2022/06/09 13:13:20;;;;;;;8.10;2.60;;;21.00;99.90;;;;;;5118244;28;20684;-86
2022/06/09 13:16:10;;;;;;;8.30;2.47;;;21.20;99.90;;;;;;5101613;28;20577;-84
2022/06/09 13:18:47;;;;;;;7.43;2.50;;;21.30;99.90;;;;;;5106484;28;20621;-87
2022/06/09 13:21:25;;;;;;;8.90;2.67;;;21.40;99.90;;;;;;5102740;28;20190;-85
2022/06/09 13:23:59;;;;;;;9.87;2.87;;;21.50;99.90;;;;;;5118406;28;20210;-90
2022/06/09 13:26:30;;;;;;;7.80;2.30;;;21.50;1.00;;;;;;5125513;28;20197;-84
2022/06/09 13:28:59;;;;;;;7.87;2.87;;;21.60;99.90;;;;;;5105504;28;20175;-85
2022/06/09 13:31:31;;;;;;;8.73;2.93;;;21.50;1.00;;;;;;5109318;28;20285;-87
2022/06/09 13:34:14;;;;;;;4.77;2.10;;;21.30;99.90;;;;;;5116702;28;20165;-86
2022/06/09 13:36:56;;;;;;;5.93;2.33;;;21.40;99.90;;;;;;5115239;28;20196;-87
2022/06/09 13:39:32;;;;;;;6.67;2.13;;;21.50;99.90;;;;;;5117160;28;20174;-88
2022/06/09 13:42:01;;;;;;;7.00;2.20;;;21.60;1.00;;;;;;5123495;28;20212;-86
2022/06/09 13:44:38;;;;;;;7.60;2.33;;;21.60;99.90;;;;;;5154421;27;20165;-85
2022/06/09 13:47:23;;;;;;;9.93;2.60;;;21.60;1.00;;;;;;5132445;27;20214;-86
2022/06/09 13:50:00;;;;;;;8.07;2.27;;;21.60;1.00;;;;;;5126837;28;20203;-87
2022/06/09 13:52:49;;;;;;;10.47;2.40;;;21.80;1.00;;;;;;5112625;28;20163;-86
2022/06/09 13:55:27;;;;;;;9.47;2.33;;;21.50;99.90;;;;;;5107985;28;20215;-87
2022/06/09 13:58:20;;;;;;;7.90;2.60;;;21.60;1.00;;;;;;5105566;28;20592;-87
2022/06/09 14:00:55;;;;;;;6.07;2.40;;;21.70;99.90;;;;;;5087287;27;20176;-86
2022/06/09 14:03:35;;;;;;;7.40;2.50;;;21.60;99.90;;;;;;5101026;28;20165;-85
2022/06/09 14:06:11;;;;;;;7.07;2.27;;;21.70;99.90;;;;;;5101787;28;20167;-87
2022/06/09 14:08:45;;;;;;;9.50;2.00;;;22.00;5.70;;;;;;5105373;28;20198;-87
2022/06/09 14:11:19;;;;;;;7.00;2.83;;;21.90;1.00;;;;;;5090798;28;20222;-86
2022/06/09 14:14:03;;;;;;;4.37;2.00;;;22.20;1.00;;;;;;5105807;28;20170;-86
2022/06/09 14:16:37;;;;;;;9.73;2.53;;;22.40;99.90;;;;;;5103229;28;20175;-84
2022/06/09 14:19:06;;;;;;;6.53;1.90;;;22.50;75.70;;;;;;5088297;28;20167;-87
2022/06/09 14:21:34;;;;;;;8.37;2.57;;;22.40;99.90;;;;;;5107345;28;20284;-86
2022/06/09 14:24:03;;;;;;;4.90;1.90;;;22.40;99.90;;;;;;5108002;28;20183;-86
2022/06/09 14:26:36;;;;;;;7.90;2.37;;;22.40;1.00;;;;;;5107393;28;20179;-87
2022/06/09 14:29:07;;;;;;;7.90;2.40;;;22.30;99.90;;;;;;5105219;28;20175;-87
2022/06/09 14:31:32;;;;;;;6.87;2.37;;;22.40;99.90;;;;;;5106563;28;20181;-86
2022/06/09 14:34:00;;;;;;;8.30;2.50;;;22.50;99.90;;;;;;5107557;28;20627;-86
2022/06/09 14:36:28;;;;;;;5.60;2.00;;;22.60;99.90;;;;;;5101413;28;20248;-86
2022/06/09 14:38:57;;;;;;;5.50;1.90;;;22.50;99.90;;;;;;5106105;28;20178;-86
2022/06/09 14:41:24;;;;;;;5.40;2.50;;;22.20;1.00;;;;;;5126304;28;20183;-87
2022/06/09 14:43:56;;;;;;;5.10;2.00;;;22.00;99.90;;;;;;5085315;28;20217;-87
2022/06/09 14:46:30;;;;;;;6.70;2.00;;;22.20;1.00;;;;;;5103509;28;20178;-86
2022/06/09 14:49:01;;;;;;;8.80;2.83;;;22.40;1.00;;;;;;5086767;28;20175;-86
2022/06/09 14:51:27;;;;;;;7.53;2.00;;;22.50;1.00;;;;;;5072801;28;20544;-87
2022/06/09 14:53:53;;;;;;;5.30;2.13;;;22.50;1.00;;;;;;5108654;28;20167;-86
2022/06/09 14:56:22;;;;;;;6.57;2.00;;;22.60;1.00;;;;;;5129449;28;20623;-86
2022/06/09 14:59:39;;;;;;;6.47;1.90;;;22.60;92.60;;;;;;5110483;28;20151;-86
2022/06/09 15:02:23;;;;;;;8.03;2.37;;;22.30;1.00;;;;;;5101816;28;20179;-87